Terminal Aerodrome Forecast
Issued by NWS

Home | Current Version | Previous Version | Text Only | Print | Product List | Glossary On
Versions: 1 2 3 4 5 6 7 8 9 10 11 12 13 14 15 16 17 18 19 20 21 22 23 24 25
000
FTUS41 KPBZ 281100
TAFAGC
TAF
KAGC 281125Z 2812/2912 28006KT 5SM -SHSN BR BKN015
      TEMPO 2812/2814 SCT015
     FM281400 27004KT P6SM SKC
     FM290400 VRB03KT P6SM BKN100=

USA.gov is the U.S. government's official web portal to all federal, state and local government web resources and services.